createdAt,value
2022-08-17T00:07:18.830Z,57
2022-08-17T00:17:19.552Z,0
2022-08-17T00:27:20.316Z,0
2022-08-17T00:37:21.099Z,0
2022-08-17T00:47:21.642Z,0
2022-08-17T00:57:21.747Z,0
2022-08-17T01:07:22.748Z,0
2022-08-17T01:17:23.612Z,0
2022-08-17T01:27:24.680Z,0
2022-08-17T01:57:25.709Z,0
2022-08-17T02:27:28.177Z,0
2022-08-17T02:37:28.746Z,0
2022-08-17T02:47:28.819Z,0
2022-08-17T03:07:29.766Z,0
2022-08-17T03:17:30.034Z,0
2022-08-17T03:27:30.610Z,0
2022-08-17T03:57:31.779Z,0
2022-08-17T04:07:32.031Z,0
2022-08-17T04:17:32.375Z,0
2022-08-17T04:27:32.706Z,0
2022-08-17T04:37:33.423Z,0
2022-08-17T04:47:33.758Z,0
2022-08-17T04:57:37.744Z,0
2022-08-17T05:07:35.432Z,0
2022-08-17T05:17:35.571Z,0
2022-08-17T05:57:47.604Z,0
2022-08-17T06:07:38.539Z,0
2022-08-17T06:17:39.162Z,0
2022-08-17T06:37:40.837Z,0
2022-08-17T06:47:41.566Z,0
2022-08-17T06:57:42.161Z,0
2022-08-17T07:07:42.407Z,0
2022-08-17T07:27:43.507Z,0
2022-08-17T07:37:43.998Z,0
2022-08-17T07:47:44.210Z,0
2022-08-17T07:57:44.992Z,0
2022-08-17T08:07:45.735Z,0
2022-08-17T08:17:45.942Z,6
2022-08-17T08:27:46.976Z,24
2022-08-17T08:47:47.290Z,55
2022-08-17T09:07:47.680Z,69
2022-08-17T09:17:48.387Z,72
2022-08-17T09:27:49.459Z,74
2022-08-17T09:47:57.714Z,75
2022-08-17T09:57:51.324Z,76
2022-08-17T10:07:52.425Z,75
2022-08-17T10:17:52.419Z,77
2022-08-17T10:27:53.292Z,76
2022-08-17T10:37:54.053Z,76
2022-08-17T10:47:56.141Z,76
2022-08-17T10:57:55.756Z,73
2022-08-17T11:07:55.936Z,71
2022-08-17T11:17:56.777Z,65
2022-08-17T11:27:57.328Z,58
2022-08-17T11:37:57.942Z,53
2022-08-17T11:48:24.136Z,47
2022-08-17T11:57:58.591Z,42
2022-08-17T12:17:59.559Z,27
2022-08-17T12:28:05.872Z,17
2022-08-17T12:48:00.628Z,25
2022-08-17T12:58:01.932Z,34
2022-08-17T13:18:02.440Z,51
2022-08-17T13:28:02.760Z,63
2022-08-17T13:38:03.523Z,70
2022-08-17T13:48:04.447Z,71
2022-08-17T13:58:06.961Z,77
2022-08-17T14:08:06.409Z,79
2022-08-17T14:38:06.069Z,77
2022-08-17T14:48:06.273Z,78
2022-08-17T14:58:07.277Z,71
2022-08-17T15:08:07.987Z,66
2022-08-17T15:18:15.258Z,67
2022-08-17T16:58:13.337Z,22
2022-08-17T17:08:13.441Z,9
2022-08-17T17:18:13.581Z,1
2022-08-17T17:28:13.905Z,0
2022-08-17T17:38:14.511Z,0
2022-08-17T17:48:14.835Z,0
2022-08-17T17:58:15.451Z,0
2022-08-17T18:08:15.640Z,0
2022-08-17T18:18:15.905Z,0
2022-08-17T18:38:19.900Z,0
2022-08-17T18:48:17.700Z,0
2022-08-17T18:58:18.543Z,0
2022-08-17T19:28:22.020Z,0
2022-08-17T20:38:39.451Z,0
2022-08-17T20:48:37.789Z,0
2022-08-17T20:58:33.280Z,0
2022-08-17T21:08:45.251Z,0
2022-08-17T21:38:29.558Z,0
2022-08-17T21:48:37.196Z,0
2022-08-17T21:58:30.720Z,0
2022-08-17T22:08:31.154Z,0
2022-08-17T22:18:38.767Z,0
2022-08-17T22:28:39.039Z,0
2022-08-17T23:18:35.339Z,0
2022-08-17T23:48:41.975Z,0
2022-08-17T23:58:47.935Z,0
